Weather reports worldwide

Advertisment
San Vicente, Spain (8017): temperature & dewpoint: 03.08.2020 22:00:00 - 09.08.2020 22:00:00 (CEST)San Vicente, Spain (8017): wind speed & gusts: 03.08.2020 22:00:00 - 09.08.2020 22:00:00 (CEST)San Vicente, Spain (8017): wind direction: 03.08.2020 22:00:00 - 09.08.2020 22:00:00 (CEST)San Vicente, Spain (8017): reduced air pressure: 03.08.2020 22:00:00 - 09.08.2020 22:00:00 (CEST)San Vicente, Spain (8017): precipitation: 03.08.2020 22:00:00 - 09.08.2020 22:00:00 (CEST)
Date & Time tt [°C] td [°C] ff [km/h] ff [kn] fx [km/h] fx [kn] dd ppp [hPa] rr [mm]
09.08.2020 22:00:00 21,1 19,6 1 1 9 5 SSW 1014,8 0,0
09.08.2020 21:00:00 21,2 19,8 1 1 20 11 W 1015,1 0,0
09.08.2020 20:00:00 21,7 19,8 10 6 16 9 WNW 1014,6 -
09.08.2020 19:00:00 22,1 20,1 12 7 17 9 W 1014,4 0,0
09.08.2020 18:00:00 22,5 20,4 11 6 29 15 W 1014,7 0,0
09.08.2020 17:00:00 22,8 20,7 13 7 22 12 WNW 1014,9 0,0
09.08.2020 16:00:00 22,8 20,5 16 8 24 13 WNW 1014,9 0,0
09.08.2020 15:00:00 23,4 21,3 14 8 22 12 WNW 1015,2 0,0
09.08.2020 14:00:00 23,2 21,1 13 7 20 11 WNW 1015,4 -
09.08.2020 13:00:00 23,0 21,3 11 6 15 8 NW 1015,6 0,0
09.08.2020 12:00:00 22,7 21,1 9 5 16 8 NW 1016,1 0,0
09.08.2020 11:00:00 22,3 20,9 3 2 8 5 NNW 1016,4 0,0
09.08.2020 10:00:00 21,9 20,7 0 0 7 4 N 1016,5 0,0
09.08.2020 09:00:00 21,6 20,6 0 0 9 5 N 1016,2 0,0
09.08.2020 08:00:00 20,7 19,7 5 3 11 6 SW 1016,2 -
09.08.2020 07:00:00 20,8 19,8 3 2 9 5 SW 1016,3 0,0
09.08.2020 06:00:00 20,7 19,7 4 2 9 5 SSW 1016,6 0,0
09.08.2020 05:00:00 21,0 20,0 4 2 8 4 SSW 1017,1 0,0
09.08.2020 04:00:00 21,0 19,8 4 2 6 3 SSW 1017,6 0,0
09.08.2020 03:00:00 21,1 19,9 1 0 8 4 SSW 1018,0 0,3
09.08.2020 02:00:00 20,9 19,7 5 3 11 6 S 1018,3 -
09.08.2020 01:00:00 21,1 19,8 7 4 21 11 W 1018,0 0,0
09.08.2020 00:00:00 21,1 19,8 3 2 11 6 WSW 1017,8 0,0
08.08.2020 23:00:00 21,5 20,1 5 3 13 7 W 1018,9 0,0
08.08.2020 22:00:00 21,7 20,3 8 4 14 7 SE 1018,7 0,0
08.08.2020 21:00:00 22,2 20,7 1 0 13 7 NNW 1020,1 0,0
08.08.2020 20:00:00 22,3 20,9 1 0 9 5 NNW 1018,5 -
08.08.2020 19:00:00 22,1 20,5 5 3 25 14 NE 1018,6 2,3
08.08.2020 18:00:00 23,2 20,5 5 3 13 7 NNW 1019,1 0,0
08.08.2020 17:00:00 23,5 20,9 6 4 14 8 N 1019,2 0,0
08.08.2020 16:00:00 23,7 20,3 6 3 20 11 N 1019,8 0,0
08.08.2020 15:00:00 24,9 21,6 11 6 19 10 NW 1019,8 0,0
08.08.2020 14:00:00 24,3 21,6 6 3 16 9 NNW 1020,3 -
08.08.2020 13:00:00 24,0 20,9 8 4 18 10 NW 1020,2 0,0
08.08.2020 12:00:00 23,3 20,3 4 2 16 9 NNW 1020,2 0,0
08.08.2020 11:00:00 23,0 19,8 9 5 14 8 NW 1020,4 0,0
08.08.2020 10:00:00 23,1 20,6 9 5 14 8 NW 1020,7 0,0
08.08.2020 09:00:00 19,6 18,2 7 4 11 6 SSW 1020,8 0,0
08.08.2020 08:00:00 17,7 16,6 9 5 12 7 SSW 1020,5 -
08.08.2020 07:00:00 17,6 16,5 9 5 12 7 SSW 1020,6 0,0
08.08.2020 06:00:00 17,9 16,7 8 5 11 6 SSW 1020,5 0,0
08.08.2020 05:00:00 18,5 17,1 7 4 11 6 SSW 1020,7 0,0
08.08.2020 04:00:00 18,8 17,5 6 3 13 7 SSW 1020,6 0,0
08.08.2020 03:00:00 19,1 17,8 4 2 10 5 SW 1020,7 0,0
08.08.2020 02:00:00 19,9 18,0 5 3 19 10 SW 1020,8 -
08.08.2020 01:00:00 20,2 18,7 4 2 12 6 SW 1021,0 0,0
08.08.2020 00:00:00 21,1 19,4 6 3 16 9 W 1020,8 0,0
07.08.2020 23:00:00 21,3 19,2 6 3 19 10 W 1020,5 0,0
07.08.2020 22:00:00 21,8 19,6 9 5 33 18 W 1019,7 0,0
07.08.2020 21:00:00 22,1 19,1 16 9 34 18 W 1018,9 0,0
07.08.2020 20:00:00 23,0 19,3 14 7 30 16 W 1018,8 -
07.08.2020 19:00:00 24,0 19,9 16 8 30 16 W 1018,2 0,0
07.08.2020 18:00:00 24,4 19,9 20 11 32 17 W 1017,5 0,0
07.08.2020 17:00:00 24,8 20,1 16 9 35 19 WNW 1017,5 0,0
07.08.2020 16:00:00 24,7 19,8 20 11 33 18 WNW 1017,5 0,0
07.08.2020 15:00:00 24,6 20,5 20 11 33 18 WNW 1017,4 0,0
07.08.2020 14:00:00 24,2 20,3 18 10 31 17 WNW 1017,3 -
07.08.2020 13:00:00 24,4 20,9 18 10 32 17 WNW 1016,6 0,0
07.08.2020 12:00:00 24,1 21,1 16 9 29 16 WNW 1016,2 0,0
07.08.2020 11:00:00 23,9 21,2 13 7 22 12 WNW 1016,0 0,0
07.08.2020 10:00:00 23,1 20,6 12 7 21 12 W 1015,9 0,0
07.08.2020 09:00:00 22,4 20,7 9 5 14 8 W 1015,2 0,0
07.08.2020 08:00:00 21,7 20,2 7 4 13 7 W 1014,8 -
07.08.2020 07:00:00 21,6 20,1 9 5 18 10 W 1014,5 0,0
07.08.2020 06:00:00 21,3 19,9 13 7 29 15 W 1014,2 0,0
07.08.2020 05:00:00 21,5 20,1 16 8 27 15 W 1014,0 0,0
07.08.2020 04:00:00 21,9 20,5 9 5 31 17 W 1014,0 0,0
07.08.2020 03:00:00 22,1 20,9 19 10 38 21 W 1013,8 0,0
07.08.2020 02:00:00 22,1 20,9 23 12 44 24 W 1013,4 -
07.08.2020 01:00:00 21,9 20,7 28 15 45 24 W 1012,5 0,0
07.08.2020 00:00:00 22,4 21,1 8 4 10 5 SW 1012,1 0,0
06.08.2020 23:00:00 22,7 21,3 0 0 0 0 N 1012,0 0,0
06.08.2020 22:00:00 23,3 21,8 0 0 5 3 N 1011,8 0,0
06.08.2020 21:00:00 23,9 22,1 2 1 10 5 NE 1011,9 0,0
06.08.2020 20:00:00 24,5 22,0 3 2 10 5 NE 1011,6 -
06.08.2020 19:00:00 25,3 22,2 4 2 9 5 NE 1011,6 0,0
06.08.2020 18:00:00 25,2 21,9 4 2 8 4 N 1011,8 0,0
06.08.2020 17:00:00 24,1 21,1 4 2 10 6 NNW 1012,0 0,0
06.08.2020 16:00:00 24,1 20,7 4 2 9 5 NNW 1012,3 0,0
06.08.2020 15:00:00 24,1 19,4 4 2 10 5 N 1012,6 0,0
06.08.2020 14:00:00 23,4 18,7 2 1 13 7 N 1012,8 -
06.08.2020 13:00:00 22,7 18,7 4 2 12 7 N 1013,0 0,0
06.08.2020 12:00:00 23,3 19,3 5 3 7 4 N 1013,1 0,0
06.08.2020 11:00:00 21,4 18,4 3 1 5 3 NNE 1013,4 0,0
06.08.2020 10:00:00 21,7 18,1 0 0 11 6 N 1013,4 0,0
06.08.2020 09:00:00 18,9 17,4 7 4 12 7 SSW 1013,5 0,0
06.08.2020 08:00:00 16,9 16,0 9 5 11 6 SSW 1013,6 -
06.08.2020 07:00:00 16,3 15,3 9 5 13 7 SW 1013,6 0,0
06.08.2020 06:00:00 16,5 15,5 11 6 14 7 SSW 1013,6 0,0
06.08.2020 05:00:00 16,8 15,8 11 6 13 7 SW 1013,9 0,0
06.08.2020 04:00:00 17,0 15,9 11 6 13 7 SSW 1014,2 0,0
06.08.2020 03:00:00 17,2 16,0 11 6 14 8 SSW 1014,4 0,0
06.08.2020 02:00:00 17,7 16,6 10 5 13 7 SSW 1014,8 -
06.08.2020 01:00:00 18,2 16,9 10 5 12 7 SSW 1014,9 0,0
06.08.2020 00:00:00 19,2 17,7 8 4 11 6 SSW 1015,0 0,0
05.08.2020 23:00:00 20,4 18,9 0 0 5 3 SSW 1015,2 0,0
05.08.2020 22:00:00 21,7 19,8 0 0 8 4 N 1014,7 0,0
05.08.2020 21:00:00 22,7 20,1 6 3 8 5 ENE 1014,0 0,0
05.08.2020 20:00:00 23,9 20,1 4 2 10 6 NE 1013,8 -
05.08.2020 19:00:00 24,3 19,8 5 3 11 6 ENE 1013,6 0,0
05.08.2020 18:00:00 23,4 20,1 4 2 11 6 NNE 1013,7 0,0
05.08.2020 17:00:00 23,3 19,3 5 3 13 7 NNW 1013,9 0,0
05.08.2020 16:00:00 23,1 18,6 3 2 11 6 N 1014,0 0,0
05.08.2020 15:00:00 22,9 18,0 3 2 10 6 N 1013,9 0,0
05.08.2020 14:00:00 22,9 17,6 5 3 9 5 N 1014,0 -
05.08.2020 13:00:00 21,9 17,9 5 3 9 5 N 1013,8 0,0
05.08.2020 12:00:00 21,3 17,9 4 2 8 4 N 1013,9 0,0
05.08.2020 11:00:00 20,1 17,1 2 1 5 3 NNE 1014,0 0,0
05.08.2020 10:00:00 19,7 17,3 1 1 5 3 NNE 1014,2 0,0
05.08.2020 09:00:00 17,9 16,7 5 3 11 6 SSW 1013,8 0,0
05.08.2020 08:00:00 16,3 15,3 1 1 12 6 WSW 1013,7 -
05.08.2020 07:00:00 15,6 14,6 8 5 11 6 SSW 1013,5 0,0
05.08.2020 06:00:00 15,9 14,9 9 5 11 6 SSW 1013,7 0,0
05.08.2020 05:00:00 16,4 15,4 8 4 11 6 SW 1014,3 0,0
05.08.2020 04:00:00 16,5 15,5 9 5 14 8 SSW 1014,6 0,0
05.08.2020 03:00:00 16,9 16,0 10 5 13 7 SSW 1015,3 0,0
05.08.2020 02:00:00 17,6 16,5 8 5 11 6 SSW 1015,9 -
05.08.2020 01:00:00 18,0 16,8 8 5 10 6 SSW 1016,2 0,0
05.08.2020 00:00:00 19,0 17,7 4 2 9 5 S 1016,6 0,0
04.08.2020 23:00:00 20,3 18,8 5 3 20 11 SE 1016,8 0,0
04.08.2020 22:00:00 20,9 19,2 9 5 26 14 E 1016,4 0,0
04.08.2020 21:00:00 21,7 18,7 12 7 32 17 E 1016,7 0,0
04.08.2020 20:00:00 21,9 18,7 22 12 32 17 ENE 1016,6 -
04.08.2020 19:00:00 22,0 18,6 23 13 30 16 ENE 1016,5 0,0
04.08.2020 18:00:00 22,6 18,5 19 10 29 15 ENE 1017,4 0,0
04.08.2020 17:00:00 23,2 18,8 21 11 31 17 ENE 1017,9 0,0
04.08.2020 16:00:00 23,2 17,9 21 11 30 16 ENE 1018,2 0,0
04.08.2020 15:00:00 23,0 17,9 19 10 29 16 ENE 1018,4 0,0
04.08.2020 14:00:00 23,5 17,5 18 10 26 14 ENE 1018,8 -
04.08.2020 13:00:00 23,6 17,6 10 6 22 12 NE 1019,1 0,0
04.08.2020 12:00:00 22,7 17,4 14 7 22 12 ENE 1019,1 0,0
04.08.2020 11:00:00 21,6 17,0 4 2 8 4 NE 1019,3 0,0
04.08.2020 10:00:00 18,7 17,4 4 2 12 6 S 1019,3 0,0
04.08.2020 09:00:00 17,7 16,4 9 5 11 6 SSW 1019,1 0,0
04.08.2020 08:00:00 17,3 16,0 8 4 11 6 SSW 1018,9 -
04.08.2020 07:00:00 17,5 16,2 9 5 11 6 SSW 1018,8 0,0
04.08.2020 06:00:00 17,5 16,2 8 4 10 5 SSW 1018,8 0,0
04.08.2020 05:00:00 18,3 17,0 6 4 9 5 S 1018,9 0,0
04.08.2020 04:00:00 18,7 17,2 6 4 9 5 SSW 1019,3 0,0
04.08.2020 03:00:00 18,9 17,4 6 4 9 5 SSW 1019,7 0,0
04.08.2020 02:00:00 19,2 17,5 5 3 8 5 SSW 1020,0 -
04.08.2020 01:00:00 19,2 17,5 5 3 8 5 SSW 1020,2 0,0
04.08.2020 00:00:00 19,4 17,4 5 3 8 4 SSW 1020,2 0,0
03.08.2020 23:00:00 19,4 16,8 6 3 8 4 S 1019,9 0,0
03.08.2020 22:00:00 20,0 15,6 3 1 9 5 ESE 1019,5 0,0

tt = temperature
td = dewpoint
ff = wind speed
fx = gusts
dd = wind direction
ppp = reduced air pressure
rr = precipitation

Next stations